Shinsei Maru — JD2188 — position and weather

sailwx.info

Track history (hours):
 
Tides and Currents Weather Stations Pressure Air Temp Water Temp Dewpoint Dewpoint Depression Visibility Wind Speed Wind Dir Waves Ship Positions

Shinsei Maru

Last reported at 2016-Jun-25 07:33 UTC. Time now 2016-Jun-26 04:46 UTC.
Position N 34°04' E 134°60'.

Length 104 m; draft 6.5 m.

Type: Tanker. MMSI: 431301775.

Date/timePositionNaut miles runAvg speedWind from/ knotsBaromVisibWave heightAir tempDewpointWater temp
2016-Jun-25 07:33N 34°04' E 134°60'8 1.0
2016-Jun-24 23:31N 34°09' E 135°07'0 0.0
2016-Jun-24 19:22N 34°09' E 135°07'0 0.0
2016-Jun-24 18:31N 34°09' E 135°07'0 0.1
2016-Jun-24 17:28N 34°09' E 135°07'0 0.0
2016-Jun-24 16:31N 34°09' E 135°07'0 0.0
2016-Jun-24 15:25N 34°09' E 135°07'0 0.0
2016-Jun-24 14:28N 34°09' E 135°07'0 0.0
2016-Jun-24 13:31N 34°09' E 135°07'0 0.0
2016-Jun-24 12:31N 34°09' E 135°07'0 0.0
2016-Jun-24 11:28N 34°09' E 135°07'0 0.1
2016-Jun-24 10:31N 34°09' E 135°07'0 0.0
2016-Jun-24 09:31N 34°09' E 135°07'0 0.0
2016-Jun-24 08:31N 34°09' E 135°07'0 0.1
2016-Jun-24 07:31N 34°09' E 135°07'6 0.1
2016-Jun-22 07:34N 34°04' E 135°03'5 0.6
2016-Jun-21 23:30N 34°08' E 135°07'0 0.3
2016-Jun-21 22:31N 34°08' E 135°07'0 0.0
2016-Jun-21 21:31N 34°08' E 135°07'0 0.0
2016-Jun-21 20:31N 34°08' E 135°07'0 0.0
2016-Jun-21 18:31N 34°08' E 135°07'0 0.0
2016-Jun-21 17:31N 34°08' E 135°07'0 0.1
2016-Jun-21 16:31N 34°08' E 135°07'0 0.0
2016-Jun-21 15:31N 34°08' E 135°07'0 0.1
2016-Jun-21 14:31N 34°08' E 135°07'0 0.1
2016-Jun-21 13:31N 34°08' E 135°07'0 0.0
2016-Jun-21 12:31N 34°08' E 135°07'0 0.0
2016-Jun-21 11:31N 34°08' E 135°07'0 0.1
2016-Jun-21 10:31N 34°08' E 135°07'0 0.0
2016-Jun-21 09:31N 34°08' E 135°07'0 0.1
2016-Jun-21 08:13N 34°08' E 135°07'0 0.1
2016-Jun-21 07:31N 34°08' E 135°07'3 2.9
2016-Jun-21 06:33N 34°07' E 135°04'  
2016-Jun-16 09:19N 34°03' E 135°01'11 1.1
2016-Jun-15 23:34N 34°13' E 135°07'1 1.4
2016-Jun-15 22:31N 34°13' E 135°08'0 0.0
2016-Jun-15 21:31N 34°13' E 135°08'0 0.0
2016-Jun-15 20:31N 34°13' E 135°08'0 0.0
2016-Jun-15 19:31N 34°13' E 135°08'0 0.0
2016-Jun-15 18:31N 34°13' E 135°08'0 0.0
2016-Jun-15 17:31N 34°13' E 135°08'0 0.0
2016-Jun-15 16:31N 34°13' E 135°08'0 0.0
2016-Jun-15 15:31N 34°13' E 135°08'0 0.0
2016-Jun-15 14:31N 34°13' E 135°08'0 0.0
2016-Jun-15 13:28N 34°13' E 135°08'0 0.0
2016-Jun-15 12:31N 34°13' E 135°08'0 0.0
2016-Jun-15 11:31N 34°13' E 135°08'0 0.0
2016-Jun-15 10:31N 34°13' E 135°08'0 0.0
2016-Jun-15 09:31N 34°13' E 135°08'0 0.0
2016-Jun-15 08:31N 34°13' E 135°08'1 1.4
2016-Jun-15 07:33N 34°13' E 135°07'  
Track history (hours):
 
Tides and Currents Weather Stations Pressure Air Temp Water Temp Dewpoint Dewpoint Depression Visibility Wind Speed Wind Dir Waves Ship Positions

Shinsei Maru

Last reported at 2016-Jun-25 07:33 UTC. Time now 2016-Jun-26 04:46 UTC.
Position N 34°04' E 134°60'.

Length 104 m; draft 6.5 m.

Type: Tanker. MMSI: 431301775.

Date/timePositionNaut miles runAvg speedWind from/ knotsBaromVisibWave heightAir tempDewpointWater temp
2016-Jun-25 07:33N 34°04' E 134°60'8 1.0
2016-Jun-24 23:31N 34°09' E 135°07'0 0.0
2016-Jun-24 19:22N 34°09' E 135°07'0 0.0
2016-Jun-24 18:31N 34°09' E 135°07'0 0.1
2016-Jun-24 17:28N 34°09' E 135°07'0 0.0
2016-Jun-24 16:31N 34°09' E 135°07'0 0.0
2016-Jun-24 15:25N 34°09' E 135°07'0 0.0
2016-Jun-24 14:28N 34°09' E 135°07'0 0.0
2016-Jun-24 13:31N 34°09' E 135°07'0 0.0
2016-Jun-24 12:31N 34°09' E 135°07'0 0.0
2016-Jun-24 11:28N 34°09' E 135°07'0 0.1
2016-Jun-24 10:31N 34°09' E 135°07'0 0.0
2016-Jun-24 09:31N 34°09' E 135°07'0 0.0
2016-Jun-24 08:31N 34°09' E 135°07'0 0.1
2016-Jun-24 07:31N 34°09' E 135°07'6 0.1
2016-Jun-22 07:34N 34°04' E 135°03'5 0.6
2016-Jun-21 23:30N 34°08' E 135°07'0 0.3
2016-Jun-21 22:31N 34°08' E 135°07'0 0.0
2016-Jun-21 21:31N 34°08' E 135°07'0 0.0
2016-Jun-21 20:31N 34°08' E 135°07'0 0.0
2016-Jun-21 18:31N 34°08' E 135°07'0 0.0
2016-Jun-21 17:31N 34°08' E 135°07'0 0.1
2016-Jun-21 16:31N 34°08' E 135°07'0 0.0
2016-Jun-21 15:31N 34°08' E 135°07'0 0.1
2016-Jun-21 14:31N 34°08' E 135°07'0 0.1
2016-Jun-21 13:31N 34°08' E 135°07'0 0.0
2016-Jun-21 12:31N 34°08' E 135°07'0 0.0
2016-Jun-21 11:31N 34°08' E 135°07'0 0.1
2016-Jun-21 10:31N 34°08' E 135°07'0 0.0
2016-Jun-21 09:31N 34°08' E 135°07'0 0.1
2016-Jun-21 08:13N 34°08' E 135°07'0 0.1
2016-Jun-21 07:31N 34°08' E 135°07'3 2.9
2016-Jun-21 06:33N 34°07' E 135°04'  
2016-Jun-16 09:19N 34°03' E 135°01'11 1.1
2016-Jun-15 23:34N 34°13' E 135°07'1 1.4
2016-Jun-15 22:31N 34°13' E 135°08'0 0.0
2016-Jun-15 21:31N 34°13' E 135°08'0 0.0
2016-Jun-15 20:31N 34°13' E 135°08'0 0.0
2016-Jun-15 19:31N 34°13' E 135°08'0 0.0
2016-Jun-15 18:31N 34°13' E 135°08'0 0.0
2016-Jun-15 17:31N 34°13' E 135°08'0 0.0
2016-Jun-15 16:31N 34°13' E 135°08'0 0.0
2016-Jun-15 15:31N 34°13' E 135°08'0 0.0
2016-Jun-15 14:31N 34°13' E 135°08'0 0.0
2016-Jun-15 13:28N 34°13' E 135°08'0 0.0
2016-Jun-15 12:31N 34°13' E 135°08'0 0.0
2016-Jun-15 11:31N 34°13' E 135°08'0 0.0
2016-Jun-15 10:31N 34°13' E 135°08'0 0.0
2016-Jun-15 09:31N 34°13' E 135°08'0 0.0
2016-Jun-15 08:31N 34°13' E 135°08'1 1.4
2016-Jun-15 07:33N 34°13' E 135°07'  

Dump ship's entire track history